sensor_id;sensor_type;location;lat;lon;timestamp;pressure;altitude;pressure_sealevel;temperature;humidity
71424;BME280;59240;51.370;-0.486;2022-11-14T00:00:52;101247.22;;;10.11;87.62
71424;BME280;59240;51.370;-0.486;2022-11-14T00:03:19;101245.50;;;10.10;88.59
71424;BME280;59240;51.370;-0.486;2022-11-14T00:05:46;101253.31;;;10.08;88.13
71424;BME280;59240;51.370;-0.486;2022-11-14T00:08:19;101249.91;;;10.05;87.36
71424;BME280;59240;51.370;-0.486;2022-11-14T00:10:48;101243.00;;;10.01;87.96
71424;BME280;59240;51.370;-0.486;2022-11-14T00:13:16;101247.34;;;10.00;88.72
71424;BME280;59240;51.370;-0.486;2022-11-14T00:15:44;101239.59;;;9.97;87.36
71424;BME280;59240;51.370;-0.486;2022-11-14T00:18:11;101237.88;;;9.95;88.17
71424;BME280;59240;51.370;-0.486;2022-11-14T00:20:37;101236.19;;;9.92;87.84
71424;BME280;59240;51.370;-0.486;2022-11-14T00:23:04;101230.16;;;9.89;87.29
71424;BME280;59240;51.370;-0.486;2022-11-14T00:25:31;101229.28;;;9.86;88.29
71424;BME280;59240;51.370;-0.486;2022-11-14T00:27:57;101200.88;;;9.71;87.70
71424;BME280;59240;51.370;-0.486;2022-11-14T00:30:25;101212.09;;;9.76;87.64
71424;BME280;59240;51.370;-0.486;2022-11-14T00:32:52;101210.34;;;9.77;87.45
71424;BME280;59240;51.370;-0.486;2022-11-14T00:35:19;101211.22;;;9.74;88.29
71424;BME280;59240;51.370;-0.486;2022-11-14T00:37:45;101202.63;;;9.69;86.80
71424;BME280;59240;51.370;-0.486;2022-11-14T00:40:12;101202.66;;;9.66;88.00
71424;BME280;59240;51.370;-0.486;2022-11-14T00:42:40;101195.72;;;9.68;87.98
71424;BME280;59240;51.370;-0.486;2022-11-14T00:45:08;101193.97;;;9.69;88.50
71424;BME280;59240;51.370;-0.486;2022-11-14T00:47:35;101198.28;;;9.70;88.63
71424;BME280;59240;51.370;-0.486;2022-11-14T00:50:02;101192.16;;;9.72;87.42
71424;BME280;59240;51.370;-0.486;2022-11-14T00:52:29;101193.88;;;9.73;88.07
71424;BME280;59240;51.370;-0.486;2022-11-14T00:54:55;101192.16;;;9.75;88.50
71424;BME280;59240;51.370;-0.486;2022-11-14T00:57:22;101192.09;;;9.78;87.88
71424;BME280;59240;51.370;-0.486;2022-11-14T00:59:48;101182.53;;;9.80;88.54
71424;BME280;59240;51.370;-0.486;2022-11-14T01:02:15;101128.25;;;9.53;88.59
71424;BME280;59240;51.370;-0.486;2022-11-14T01:04:41;101173.91;;;9.77;89.30
71424;BME280;59240;51.370;-0.486;2022-11-14T01:07:07;101189.47;;;9.83;89.29
71424;BME280;59240;51.370;-0.486;2022-11-14T01:09:34;101179.91;;;9.83;89.07
71424;BME280;59240;51.370;-0.486;2022-11-14T01:12:01;101182.47;;;9.86;89.08
71424;BME280;59240;51.370;-0.486;2022-11-14T01:14:27;101184.19;;;9.89;87.78
71424;BME280;59240;51.370;-0.486;2022-11-14T01:16:54;101169.50;;;9.83;88.26
71424;BME280;59240;51.370;-0.486;2022-11-14T01:19:20;101180.72;;;9.87;88.75
71424;BME280;59240;51.370;-0.486;2022-11-14T01:21:46;101179.81;;;9.88;88.36
71424;BME280;59240;51.370;-0.486;2022-11-14T01:24:13;101171.16;;;9.87;88.45
71424;BME280;59240;51.370;-0.486;2022-11-14T01:26:40;101167.66;;;9.92;88.69
71424;BME280;59240;51.370;-0.486;2022-11-14T01:29:06;101162.41;;;9.93;89.36
71424;BME280;59240;51.370;-0.486;2022-11-14T01:31:33;101152.03;;;9.92;89.40
71424;BME280;59240;51.370;-0.486;2022-11-14T01:33:59;101146.84;;;9.92;88.65
71424;BME280;59240;51.370;-0.486;2022-11-14T01:36:26;101127.88;;;9.80;89.60
71424;BME280;59240;51.370;-0.486;2022-11-14T01:38:52;101146.78;;;9.95;88.49
71424;BME280;59240;51.370;-0.486;2022-11-14T01:41:20;101153.69;;;9.99;89.18
71424;BME280;59240;51.370;-0.486;2022-11-14T01:43:47;101147.59;;;10.00;88.96
71424;BME280;59240;51.370;-0.486;2022-11-14T01:48:44;101143.22;;;10.03;89.06
71424;BME280;59240;51.370;-0.486;2022-11-14T01:53:44;101132.78;;;10.05;89.09
71424;BME280;59240;51.370;-0.486;2022-11-14T01:56:14;101118.94;;;10.03;89.56
71424;BME280;59240;51.370;-0.486;2022-11-14T01:58:49;101126.66;;;10.09;89.52
71424;BME280;59240;51.370;-0.486;2022-11-14T02:01:17;101115.34;;;10.10;89.50
71424;BME280;59240;51.370;-0.486;2022-11-14T02:03:47;101117.09;;;10.08;89.19
71424;BME280;59240;51.370;-0.486;2022-11-14T02:06:18;101115.28;;;10.13;88.39
71424;BME280;59240;51.370;-0.486;2022-11-14T02:08:47;101120.50;;;10.13;89.96
71424;BME280;59240;51.370;-0.486;2022-11-14T02:11:14;101121.41;;;10.10;89.32
71424;BME280;59240;51.370;-0.486;2022-11-14T02:13:40;101136.13;;;10.13;89.56
71424;BME280;59240;51.370;-0.486;2022-11-14T02:16:07;101095.56;;;9.98;89.02
71424;BME280;59240;51.370;-0.486;2022-11-14T02:18:33;101129.16;;;10.13;89.37
71424;BME280;59240;51.370;-0.486;2022-11-14T02:21:00;101122.22;;;10.14;89.78
71424;BME280;59240;51.370;-0.486;2022-11-14T02:23:29;101118.84;;;10.09;89.21
71424;BME280;59240;51.370;-0.486;2022-11-14T02:25:56;101124.88;;;10.11;88.88
71424;BME280;59240;51.370;-0.486;2022-11-14T02:28:23;101114.47;;;10.11;88.55
71424;BME280;59240;51.370;-0.486;2022-11-14T02:30:50;101111.03;;;10.07;88.59
71424;BME280;59240;51.370;-0.486;2022-11-14T02:33:16;101100.69;;;10.04;88.62
71424;BME280;59240;51.370;-0.486;2022-11-14T02:35:43;101102.41;;;10.04;89.03
71424;BME280;59240;51.370;-0.486;2022-11-14T02:38:09;101098.97;;;10.02;88.25
71424;BME280;59240;51.370;-0.486;2022-11-14T02:40:36;101120.63;;;10.05;89.66
71424;BME280;59240;51.370;-0.486;2022-11-14T02:43:02;101112.84;;;10.04;89.20
71424;BME280;59240;51.370;-0.486;2022-11-14T02:45:29;101113.72;;;10.03;89.94
71424;BME280;59240;51.370;-0.486;2022-11-14T02:47:56;101126.66;;;10.07;88.56
71424;BME280;59240;51.370;-0.486;2022-11-14T02:50:22;101116.25;;;10.07;89.09
71424;BME280;59240;51.370;-0.486;2022-11-14T02:52:48;101105.03;;;10.04;89.72
71424;BME280;59240;51.370;-0.486;2022-11-14T02:55:15;101107.56;;;10.07;89.02
71424;BME280;59240;51.370;-0.486;2022-11-14T02:57:41;101107.53;;;10.10;89.01
71424;BME280;59240;51.370;-0.486;2022-11-14T03:00:08;101101.47;;;10.08;88.79
71424;BME280;59240;51.370;-0.486;2022-11-14T03:02:40;101091.06;;;10.08;89.47
71424;BME280;59240;51.370;-0.486;2022-11-14T03:05:07;101088.47;;;10.08;88.35
71424;BME280;59240;51.370;-0.486;2022-11-14T03:07:33;101097.06;;;10.13;89.40
71424;BME280;59240;51.370;-0.486;2022-11-14T03:10:00;101092.69;;;10.15;89.02
71424;BME280;59240;51.370;-0.486;2022-11-14T03:12:27;101087.47;;;10.15;89.50
71424;BME280;59240;51.370;-0.486;2022-11-14T03:14:53;101087.47;;;10.15;89.17
71424;BME280;59240;51.370;-0.486;2022-11-14T03:17:20;101081.44;;;10.13;88.61
71424;BME280;59240;51.370;-0.486;2022-11-14T03:19:49;101069.28;;;10.13;89.54
71424;BME280;59240;51.370;-0.486;2022-11-14T03:22:16;101072.72;;;10.15;89.43
71424;BME280;59240;51.370;-0.486;2022-11-14T03:24:42;101071.88;;;10.15;89.53
71424;BME280;59240;51.370;-0.486;2022-11-14T03:27:09;101070.97;;;10.18;89.53
71424;BME280;59240;51.370;-0.486;2022-11-14T03:29:35;101057.06;;;10.19;89.49
71424;BME280;59240;51.370;-0.486;2022-11-14T03:32:02;101057.09;;;10.17;89.58
71424;BME280;59240;51.370;-0.486;2022-11-14T03:34:29;101057.09;;;10.17;89.74
71424;BME280;59240;51.370;-0.486;2022-11-14T03:36:55;101051.88;;;10.19;89.79
71424;BME280;59240;51.370;-0.486;2022-11-14T03:39:22;101039.69;;;10.19;88.86
71424;BME280;59240;51.370;-0.486;2022-11-14T03:41:48;101040.53;;;10.21;88.96
71424;BME280;59240;51.370;-0.486;2022-11-14T03:44:15;101038.00;;;10.18;89.57
71424;BME280;59240;51.370;-0.486;2022-11-14T03:46:41;101047.44;;;10.22;89.65
71424;BME280;59240;51.370;-0.486;2022-11-14T03:49:08;101031.03;;;10.19;89.41
71424;BME280;59240;51.370;-0.486;2022-11-14T03:51:34;101030.97;;;10.22;89.19
71424;BME280;59240;51.370;-0.486;2022-11-14T03:54:01;101030.13;;;10.21;88.53
71424;BME280;59240;51.370;-0.486;2022-11-14T03:56:27;101024.91;;;10.21;88.70
71424;BME280;59240;51.370;-0.486;2022-11-14T03:58:54;101024.91;;;10.21;88.27
71424;BME280;59240;51.370;-0.486;2022-11-14T04:01:20;101020.63;;;10.19;88.35
71424;BME280;59240;51.370;-0.486;2022-11-14T04:03:47;100971.66;;;9.90;89.02
71424;BME280;59240;51.370;-0.486;2022-11-14T04:06:13;101011.06;;;10.19;88.35
71424;BME280;59240;51.370;-0.486;2022-11-14T04:08:40;101014.56;;;10.18;89.13
71424;BME280;59240;51.370;-0.486;2022-11-14T04:11:07;101026.63;;;10.22;88.00
71424;BME280;59240;51.370;-0.486;2022-11-14T04:13:33;101018.06;;;10.17;88.55
71424;BME280;59240;51.370;-0.486;2022-11-14T04:16:00;101019.72;;;10.20;88.57
71424;BME280;59240;51.370;-0.486;2022-11-14T04:18:26;101018.00;;;10.20;89.94
71424;BME280;59240;51.370;-0.486;2022-11-14T04:20:54;101018.06;;;10.15;88.93
71424;BME280;59240;51.370;-0.486;2022-11-14T04:23:20;101020.63;;;10.19;89.76
71424;BME280;59240;51.370;-0.486;2022-11-14T04:25:47;101026.69;;;10.19;88.99
71424;BME280;59240;51.370;-0.486;2022-11-14T04:28:13;101029.34;;;10.16;89.79
71424;BME280;59240;51.370;-0.486;2022-11-14T04:30:40;101037.09;;;10.19;89.67
71424;BME280;59240;51.370;-0.486;2022-11-14T04:33:07;101023.34;;;10.11;88.87
71424;BME280;59240;51.370;-0.486;2022-11-14T04:35:33;101023.25;;;10.17;89.64
71424;BME280;59240;51.370;-0.486;2022-11-14T04:38:00;101002.38;;;10.23;89.68
71424;BME280;59240;51.370;-0.486;2022-11-14T04:40:26;100993.72;;;10.18;89.05
71424;BME280;59240;51.370;-0.486;2022-11-14T04:42:53;100995.38;;;10.22;88.95
71424;BME280;59240;51.370;-0.486;2022-11-14T04:45:19;100998.88;;;10.24;90.21
71424;BME280;59240;51.370;-0.486;2022-11-14T04:47:46;101000.59;;;10.25;89.85
71424;BME280;59240;51.370;-0.486;2022-11-14T04:50:12;101003.16;;;10.27;90.06
71424;BME280;59240;51.370;-0.486;2022-11-14T04:52:39;100983.34;;;10.15;89.97
71424;BME280;59240;51.370;-0.486;2022-11-14T04:55:06;101010.91;;;10.31;90.07
71424;BME280;59240;51.370;-0.486;2022-11-14T04:57:32;101016.13;;;10.28;89.72
71424;BME280;59240;51.370;-0.486;2022-11-14T04:59:59;101000.59;;;10.25;90.11
71424;BME280;59240;51.370;-0.486;2022-11-14T05:02:25;100964.47;;;10.04;89.41
71424;BME280;59240;51.370;-0.486;2022-11-14T05:04:52;100995.41;;;10.24;89.04
71424;BME280;59240;51.370;-0.486;2022-11-14T05:07:18;100989.34;;;10.20;89.99
71424;BME280;59240;51.370;-0.486;2022-11-14T05:09:45;100985.88;;;10.20;88.72
71424;BME280;59240;51.370;-0.486;2022-11-14T05:12:11;100995.41;;;10.21;89.98
71424;BME280;59240;51.370;-0.486;2022-11-14T05:14:38;100990.25;;;10.19;88.70
71424;BME280;59240;51.370;-0.486;2022-11-14T05:17:04;100985.09;;;10.16;89.66
71424;BME280;59240;51.370;-0.486;2022-11-14T05:19:31;100957.66;;;9.97;89.13
71424;BME280;59240;51.370;-0.486;2022-11-14T05:21:57;100973.88;;;10.12;89.46
71424;BME280;59240;51.370;-0.486;2022-11-14T05:24:23;100974.72;;;10.13;89.56
71424;BME280;59240;51.370;-0.486;2022-11-14T05:26:51;100969.50;;;10.13;89.02
71424;BME280;59240;51.370;-0.486;2022-11-14T05:29:17;100971.25;;;10.12;89.42
71424;BME280;59240;51.370;-0.486;2022-11-14T05:31:44;100966.13;;;10.08;88.71
71424;BME280;59240;51.370;-0.486;2022-11-14T05:34:10;100960.03;;;10.10;89.87
71424;BME280;59240;51.370;-0.486;2022-11-14T05:36:37;100971.22;;;10.14;89.69
71424;BME280;59240;51.370;-0.486;2022-11-14T05:39:03;100967.72;;;10.15;90.03
71424;BME280;59240;51.370;-0.486;2022-11-14T05:41:30;100917.91;;;9.87;89.63
71424;BME280;59240;51.370;-0.486;2022-11-14T05:43:56;100959.06;;;10.16;89.61
71424;BME280;59240;51.370;-0.486;2022-11-14T05:46:23;100953.00;;;10.14;89.17
71424;BME280;59240;51.370;-0.486;2022-11-14T05:48:49;100954.66;;;10.20;89.74
71424;BME280;59240;51.370;-0.486;2022-11-14T05:51:16;100952.00;;;10.21;89.58
71424;BME280;59240;51.370;-0.486;2022-11-14T05:53:42;100938.38;;;10.07;90.01
71424;BME280;59240;51.370;-0.486;2022-11-14T05:56:10;100957.22;;;10.24;88.52
71424;BME280;59240;51.370;-0.486;2022-11-14T05:58:38;100944.19;;;10.21;89.46
71424;BME280;59240;51.370;-0.486;2022-11-14T06:01:10;100961.47;;;10.28;90.17
71424;BME280;59240;51.370;-0.486;2022-11-14T06:03:39;100966.63;;;10.31;89.42
71424;BME280;59240;51.370;-0.486;2022-11-14T06:06:08;100951.16;;;10.24;90.08
71424;BME280;59240;51.370;-0.486;2022-11-14T06:08:35;100955.41;;;10.28;88.73
71424;BME280;59240;51.370;-0.486;2022-11-14T06:11:04;100963.97;;;10.34;89.21
71424;BME280;59240;51.370;-0.486;2022-11-14T06:13:32;100962.25;;;10.33;89.13
71424;BME280;59240;51.370;-0.486;2022-11-14T06:16:02;100957.91;;;10.34;89.40
71424;BME280;59240;51.370;-0.486;2022-11-14T06:18:30;100951.91;;;10.30;90.05
71424;BME280;59240;51.370;-0.486;2022-11-14T06:21:05;100926.09;;;10.15;89.66
71424;BME280;59240;51.370;-0.486;2022-11-14T06:23:31;100938.00;;;10.31;88.77
71424;BME280;59240;51.370;-0.486;2022-11-14T06:26:02;100935.28;;;10.37;89.31
71424;BME280;59240;51.370;-0.486;2022-11-14T06:28:29;100937.03;;;10.37;89.53
71424;BME280;59240;51.370;-0.486;2022-11-14T06:30:58;100944.69;;;10.45;90.21
71424;BME280;59240;51.370;-0.486;2022-11-14T06:33:28;100934.31;;;10.41;89.27
71424;BME280;59240;51.370;-0.486;2022-11-14T06:35:59;100938.59;;;10.46;89.54
71424;BME280;59240;51.370;-0.486;2022-11-14T06:38:27;100948.91;;;10.52;89.23
71424;BME280;59240;51.370;-0.486;2022-11-14T06:41:01;100935.91;;;10.49;89.52
71424;BME280;59240;51.370;-0.486;2022-11-14T06:43:27;100941.06;;;10.52;90.38
71424;BME280;59240;51.370;-0.486;2022-11-14T06:45:54;100922.22;;;10.39;89.61
71424;BME280;59240;51.370;-0.486;2022-11-14T06:48:21;100935.88;;;10.52;90.42
71424;BME280;59240;51.370;-0.486;2022-11-14T06:50:54;100947.06;;;10.57;89.64
71424;BME280;59240;51.370;-0.486;2022-11-14T06:53:21;100912.66;;;10.39;90.25
71424;BME280;59240;51.370;-0.486;2022-11-14T06:58:23;100933.91;;;10.63;90.00
71424;BME280;59240;51.370;-0.486;2022-11-14T07:00:50;100934.78;;;10.62;89.94
71424;BME280;59240;51.370;-0.486;2022-11-14T07:03:16;100936.56;;;10.60;89.89
71424;BME280;59240;51.370;-0.486;2022-11-14T07:05:43;100923.63;;;10.57;89.54
71424;BME280;59240;51.370;-0.486;2022-11-14T07:08:09;100931.38;;;10.60;89.39
71424;BME280;59240;51.370;-0.486;2022-11-14T07:10:36;100944.31;;;10.63;89.44
71424;BME280;59240;51.370;-0.486;2022-11-14T07:13:02;100942.56;;;10.65;90.11
71424;BME280;59240;51.370;-0.486;2022-11-14T07:15:29;100938.28;;;10.61;89.97
71424;BME280;59240;51.370;-0.486;2022-11-14T07:17:57;100945.06;;;10.69;89.69
71424;BME280;59240;51.370;-0.486;2022-11-14T07:20:23;100916.75;;;10.53;89.53
71424;BME280;59240;51.370;-0.486;2022-11-14T07:22:50;100936.38;;;10.69;90.35
71424;BME280;59240;51.370;-0.486;2022-11-14T07:25:16;100940.56;;;10.76;90.05
71424;BME280;59240;51.370;-0.486;2022-11-14T07:27:43;100927.63;;;10.73;89.66
71424;BME280;59240;51.370;-0.486;2022-11-14T07:30:10;100938.81;;;10.78;89.68
71424;BME280;59240;51.370;-0.486;2022-11-14T07:32:36;100938.75;;;10.81;90.00
71424;BME280;59240;51.370;-0.486;2022-11-14T07:35:03;100931.88;;;10.77;90.13
71424;BME280;59240;51.370;-0.486;2022-11-14T07:37:30;100945.66;;;10.82;90.23
71424;BME280;59240;51.370;-0.486;2022-11-14T07:39:56;100936.13;;;10.81;89.53
71424;BME280;59240;51.370;-0.486;2022-11-14T07:42:23;100940.41;;;10.85;90.33
71424;BME280;59240;51.370;-0.486;2022-11-14T07:44:49;100915.38;;;10.77;90.74
71424;BME280;59240;51.370;-0.486;2022-11-14T07:47:16;100929.88;;;10.91;89.93
71424;BME280;59240;51.370;-0.486;2022-11-14T07:49:42;100915.09;;;10.92;89.31
71424;BME280;59240;51.370;-0.486;2022-11-14T07:52:09;100921.06;;;10.95;89.80
71424;BME280;59240;51.370;-0.486;2022-11-14T07:54:35;100905.50;;;10.92;89.84
71424;BME280;59240;51.370;-0.486;2022-11-14T07:57:02;100920.13;;;11.00;90.35
71424;BME280;59240;51.370;-0.486;2022-11-14T07:59:28;100907.16;;;10.96;90.40
71424;BME280;59240;51.370;-0.486;2022-11-14T08:01:55;100897.53;;;11.00;90.47
71424;BME280;59240;51.370;-0.486;2022-11-14T08:04:21;100909.56;;;11.06;90.22
71424;BME280;59240;51.370;-0.486;2022-11-14T08:06:48;100915.56;;;11.09;90.02
71424;BME280;59240;51.370;-0.486;2022-11-14T08:09:14;100919.91;;;11.09;90.54
71424;BME280;59240;51.370;-0.486;2022-11-14T08:11:41;100882.06;;;10.92;90.37
71424;BME280;59240;51.370;-0.486;2022-11-14T08:14:14;100914.66;;;11.10;89.92
71424;BME280;59240;51.370;-0.486;2022-11-14T08:16:40;100908.47;;;11.16;90.61
71424;BME280;59240;51.370;-0.486;2022-11-14T08:19:07;100892.03;;;11.12;90.07
71424;BME280;59240;51.370;-0.486;2022-11-14T08:21:35;100906.63;;;11.21;90.33
71424;BME280;59240;51.370;-0.486;2022-11-14T08:24:01;100907.38;;;11.24;89.87
71424;BME280;59240;51.370;-0.486;2022-11-14T08:26:28;100911.56;;;11.33;90.21
71424;BME280;59240;51.370;-0.486;2022-11-14T08:29:00;100919.34;;;11.35;90.60
71424;BME280;59240;51.370;-0.486;2022-11-14T08:31:27;100920.13;;;11.38;89.88
71424;BME280;59240;51.370;-0.486;2022-11-14T08:33:53;100893.50;;;11.24;89.96
71424;BME280;59240;51.370;-0.486;2022-11-14T08:36:20;100919.97;;;11.44;90.49
71424;BME280;59240;51.370;-0.486;2022-11-14T08:38:46;100923.38;;;11.48;90.17
71424;BME280;59240;51.370;-0.486;2022-11-14T08:41:16;100916.28;;;11.55;90.22
71424;BME280;59240;51.370;-0.486;2022-11-14T08:43:43;100921.41;;;11.58;90.45
71424;BME280;59240;51.370;-0.486;2022-11-14T08:46:10;100909.34;;;11.54;90.37
71424;BME280;59240;51.370;-0.486;2022-11-14T08:48:36;100923.88;;;11.64;90.10
71424;BME280;59240;51.370;-0.486;2022-11-14T08:51:04;100916.84;;;11.67;90.35
71424;BME280;59240;51.370;-0.486;2022-11-14T08:53:32;100891.09;;;11.52;89.86
71424;BME280;59240;51.370;-0.486;2022-11-14T08:55:59;100866.19;;;11.40;89.73
71424;BME280;59240;51.370;-0.486;2022-11-14T08:58:29;100907.16;;;11.71;90.18
71424;BME280;59240;51.370;-0.486;2022-11-14T09:01:03;100914.03;;;11.75;90.43
71424;BME280;59240;51.370;-0.486;2022-11-14T09:03:30;100905.31;;;11.76;89.61
71424;BME280;59240;51.370;-0.486;2022-11-14T09:05:56;100899.28;;;11.74;90.12
71424;BME280;59240;51.370;-0.486;2022-11-14T09:08:23;100912.13;;;11.83;90.10
71424;BME280;59240;51.370;-0.486;2022-11-14T09:10:49;100924.97;;;11.91;90.25
71424;BME280;59240;51.370;-0.486;2022-11-14T09:13:16;100925.84;;;11.91;90.24
71424;BME280;59240;51.370;-0.486;2022-11-14T09:15:43;100906.66;;;11.92;90.54
71424;BME280;59240;51.370;-0.486;2022-11-14T09:18:10;100907.31;;;12.00;90.64
71424;BME280;59240;51.370;-0.486;2022-11-14T09:20:37;100884.16;;;11.88;90.07
71424;BME280;59240;51.370;-0.486;2022-11-14T09:23:06;100908.84;;;12.09;90.09
71424;BME280;59240;51.370;-0.486;2022-11-14T09:25:32;100911.41;;;12.11;90.19
71424;BME280;59240;51.370;-0.486;2022-11-14T09:28:03;100909.63;;;12.13;90.01
71424;BME280;59240;51.370;-0.486;2022-11-14T09:30:30;100895.66;;;12.14;90.13
71424;BME280;59240;51.370;-0.486;2022-11-14T09:33:02;100890.38;;;12.17;90.12
71424;BME280;59240;51.370;-0.486;2022-11-14T09:35:36;100893.72;;;12.22;90.56
71424;BME280;59240;51.370;-0.486;2022-11-14T09:38:09;100886.69;;;12.24;90.57
71424;BME280;59240;51.370;-0.486;2022-11-14T09:45:56;100891.50;;;12.39;90.23
71424;BME280;59240;51.370;-0.486;2022-11-14T09:48:26;100880.00;;;12.45;90.73
71424;BME280;59240;51.370;-0.486;2022-11-14T09:51:16;100871.22;;;12.47;90.31
71424;BME280;59240;51.370;-0.486;2022-11-14T09:54:12;100852.06;;;12.47;90.49
71424;BME280;59240;51.370;-0.486;2022-11-14T09:56:41;100849.34;;;12.51;90.70
71424;BME280;59240;51.370;-0.486;2022-11-14T09:59:12;100859.34;;;12.67;90.54
71424;BME280;59240;51.370;-0.486;2022-11-14T10:01:58;100856.59;;;12.71;91.19
71424;BME280;59240;51.370;-0.486;2022-11-14T10:07:26;100859.00;;;12.79;91.30
71424;BME280;59240;51.370;-0.486;2022-11-14T10:23:56;100849.53;;;13.31;91.95
71424;BME280;59240;51.370;-0.486;2022-11-14T10:26:29;100855.31;;;13.42;90.78
71424;BME280;59240;51.370;-0.486;2022-11-14T10:34:12;100845.81;;;13.64;90.56
71424;BME280;59240;51.370;-0.486;2022-11-14T10:39:46;100827.84;;;13.80;90.99
71424;BME280;59240;51.370;-0.486;2022-11-14T10:42:23;100799.09;;;13.79;91.09
71424;BME280;59240;51.370;-0.486;2022-11-14T10:48:16;100807.56;;;14.10;90.54
71424;BME280;59240;51.370;-0.486;2022-11-14T10:50:51;100793.97;;;14.24;90.47
71424;BME280;59240;51.370;-0.486;2022-11-14T10:53:55;100796.06;;;14.38;89.57
71424;BME280;59240;51.370;-0.486;2022-11-14T10:56:23;100780.94;;;14.46;90.03
71424;BME280;59240;51.370;-0.486;2022-11-14T10:58:50;100785.50;;;14.64;90.02
71424;BME280;59240;51.370;-0.486;2022-11-14T11:04:27;100787.13;;;14.89;89.59
71424;BME280;59240;51.370;-0.486;2022-11-14T11:06:56;100774.69;;;14.94;89.01
71424;BME280;59240;51.370;-0.486;2022-11-14T11:09:26;100780.56;;;15.00;88.71
71424;BME280;59240;51.370;-0.486;2022-11-14T11:12:59;100784.72;;;15.06;88.87
71424;BME280;59240;51.370;-0.486;2022-11-14T11:15:13;100788.00;;;15.11;88.14
71424;BME280;59240;51.370;-0.486;2022-11-14T11:18:02;100764.50;;;15.08;88.24
71424;BME280;59240;51.370;-0.486;2022-11-14T11:20:34;100774.44;;;15.22;88.12
71424;BME280;59240;51.370;-0.486;2022-11-14T11:23:06;100777.66;;;15.28;88.59
71424;BME280;59240;51.370;-0.486;2022-11-14T11:25:39;100775.03;;;15.28;88.25
71424;BME280;59240;51.370;-0.486;2022-11-14T11:28:20;100774.13;;;15.29;87.14
71424;BME280;59240;51.370;-0.486;2022-11-14T11:30:55;100779.59;;;15.23;87.35
71424;BME280;59240;51.370;-0.486;2022-11-14T11:33:25;100774.56;;;15.19;87.21
71424;BME280;59240;51.370;-0.486;2022-11-14T11:35:58;100767.66;;;15.16;86.96
71424;BME280;59240;51.370;-0.486;2022-11-14T11:38:27;100735.78;;;15.05;87.85
71424;BME280;59240;51.370;-0.486;2022-11-14T11:41:05;100752.06;;;15.13;87.04
71424;BME280;59240;51.370;-0.486;2022-11-14T11:43:57;100756.13;;;15.20;87.01
71424;BME280;59240;51.370;-0.486;2022-11-14T11:46:55;100764.59;;;15.27;87.01
71424;BME280;59240;51.370;-0.486;2022-11-14T11:52:25;100748.41;;;15.38;87.17
71424;BME280;59240;51.370;-0.486;2022-11-14T11:55:13;100734.63;;;15.32;86.19
71424;BME280;59240;51.370;-0.486;2022-11-14T11:57:44;100746.44;;;15.43;86.59
71424;BME280;59240;51.370;-0.486;2022-11-14T12:00:18;100716.38;;;15.29;86.30
71424;BME280;59240;51.370;-0.486;2022-11-14T12:02:47;100737.53;;;15.47;87.01
71424;BME280;59240;51.370;-0.486;2022-11-14T12:10:55;100737.19;;;15.54;86.47
71424;BME280;59240;51.370;-0.486;2022-11-14T12:13:44;100739.66;;;15.57;86.13
71424;BME280;59240;51.370;-0.486;2022-11-14T12:16:24;100748.25;;;15.63;86.04
71424;BME280;59240;51.370;-0.486;2022-11-14T12:19:23;100754.22;;;15.66;85.65
71424;BME280;59240;51.370;-0.486;2022-11-14T12:22:07;100746.47;;;15.63;85.27
71424;BME280;59240;51.370;-0.486;2022-11-14T12:24:52;100738.47;;;15.66;85.37
71424;BME280;59240;51.370;-0.486;2022-11-14T12:27:44;100744.66;;;15.65;85.37
71424;BME280;59240;51.370;-0.486;2022-11-14T12:30:17;100728.94;;;15.64;85.33
71424;BME280;59240;51.370;-0.486;2022-11-14T12:35:26;100703.06;;;15.54;86.27
71424;BME280;59240;51.370;-0.486;2022-11-14T12:37:56;100718.97;;;15.72;85.43
71424;BME280;59240;51.370;-0.486;2022-11-14T12:40:26;100719.56;;;15.78;85.55
71424;BME280;59240;51.370;-0.486;2022-11-14T12:42:55;100702.13;;;15.76;85.54
71424;BME280;59240;51.370;-0.486;2022-11-14T12:50:46;100710.97;;;15.94;84.59
71424;BME280;59240;51.370;-0.486;2022-11-14T13:01:56;100681.84;;;16.17;83.95
71424;BME280;59240;51.370;-0.486;2022-11-14T13:07:51;100682.41;;;16.24;83.22
71424;BME280;59240;51.370;-0.486;2022-11-14T13:10:27;100678.72;;;16.28;83.73
71424;BME280;59240;51.370;-0.486;2022-11-14T13:13:15;100671.06;;;16.23;82.98
71424;BME280;59240;51.370;-0.486;2022-11-14T13:16:02;100674.31;;;16.28;83.34
71424;BME280;59240;51.370;-0.486;2022-11-14T13:18:50;100677.88;;;16.27;83.10
71424;BME280;59240;51.370;-0.486;2022-11-14T13:21:36;100673.75;;;16.22;83.10
71424;BME280;59240;51.370;-0.486;2022-11-14T13:24:17;100671.22;;;16.20;83.09
71424;BME280;59240;51.370;-0.486;2022-11-14T13:26:46;100672.91;;;16.21;83.05
71424;BME280;59240;51.370;-0.486;2022-11-14T13:32:01;100633.41;;;16.04;83.28
71424;BME280;59240;51.370;-0.486;2022-11-14T13:34:53;100670.28;;;16.21;82.84
71424;BME280;59240;51.370;-0.486;2022-11-14T13:40:22;100653.09;;;16.14;82.90
71424;BME280;59240;51.370;-0.486;2022-11-14T13:43:14;100621.78;;;15.91;83.00
71424;BME280;59240;51.370;-0.486;2022-11-14T13:46:04;100659.13;;;16.16;82.89
71424;BME280;59240;51.370;-0.486;2022-11-14T13:51:23;100648.91;;;16.10;82.96
71424;BME280;59240;51.370;-0.486;2022-11-14T13:54:11;100645.34;;;16.11;82.93
71424;BME280;59240;51.370;-0.486;2022-11-14T13:56:58;100638.38;;;16.10;82.98
71424;BME280;59240;51.370;-0.486;2022-11-14T13:59:43;100635.00;;;16.08;82.76
71424;BME280;59240;51.370;-0.486;2022-11-14T14:05:26;100626.38;;;16.04;82.71
71424;BME280;59240;51.370;-0.486;2022-11-14T14:13:50;100597.81;;;15.79;82.85
71424;BME280;59240;51.370;-0.486;2022-11-14T14:16:43;100602.78;;;15.85;83.52
71424;BME280;59240;51.370;-0.486;2022-11-14T14:27:25;100589.13;;;15.77;83.31
71424;BME280;59240;51.370;-0.486;2022-11-14T14:32:29;100582.41;;;15.72;83.56
71424;BME280;59240;51.370;-0.486;2022-11-14T14:34:56;100580.63;;;15.72;83.60